map of DPS home
DPS - Airport
Location
City:  Denpasar, Bali, Indonesia
Name:Ngurah Rai - Bali International Airport
ICAO:WADD
IATA:DPS

Details
Type:Airport (Aerodrome, Airfield)
Use:Public/Civil, International (customs port of entry)
Latitude:8°44'53"S (-8.748168)
Longitude:115°10'02"E (115.167172)
Datum:WGS 1984
Elevation:14 ft (4 m)
Variation:1.06°E (WMM2015 magnetic declination)
-0.07° annual change
Runways:1
Longest:9790 × 148 ft (2984 × 45 m), paved

Time
Time Zone:UTC+8
Local Time:

Weather
METAR:WADD 140400Z 27010KT 9999 FEW016 30/26 Q1009 NOSIG
TAF:WADD 131100Z 1312/1412 27008KT 9999 SCT016
TEMPO 1320/1400 VRB05KT
TEMPO 1408/1412 5000 TSRA FEW015CB BKN015

Related Locations
Nearby:
Farthest:SOM: 12398 mi / 19952 km
San Tomé, B, VE

Find:

   beyond  
but within

Other Information
Maps:
NOTAMs:
Links:
Sources:

  
flag of Indonesia
flag of Bali
  

Sectional Chart

Flight Planning
at skyvector.com

Satellite Image

Google Maps Satellite view

 

Copyright © 2004-2017 Karl L. Swartz. All rights reserved.
The Great Circle Mapper name and logo are trademarks of the Great Circle Mapper.
All other trademarks mentioned herein belong to their respective owners.
Please see credits for attibutions and further copyright information.

  Follow gcmap on Facebook Follow gcmap on Twitter Follow gcmap on Google+ GCmap on LinkedIn

hCard Microformat

Geo Microformat